DW8338 Sevilla ES current weather conditions

sailwx.info

Wind from 215 at 0 knots gusting 4

Air temperature 16.1° C
Dewpoint 14.6° C

Last reported at 2018-Apr-22 08:08 UTC.
Time now 2018-Apr-22 08:32 UTC

Location: N 37°23' W 006°01'.
View on Google Maps.

See reports from other nearby stations

  
Tides and Currents Weather Stations Pressure Air Temp Water Temp Dewpoint Dewpoint Depression Visibility Wind Speed Wind Dir Waves Ship Positions
date/time (UTC)wind fromknots sea level pressurealtimeterstation pressurevisibilityair tempwater tempwave heightnotes
2018-Apr-22 08:08 215 0 gusting 4 16.1
2018-Apr-22 07:59 216 0 gusting 2 16.1
2018-Apr-22 07:50 211 0 gusting 2 16.1
2018-Apr-22 07:41 206 15.6
2018-Apr-22 07:32 15.6
2018-Apr-22 07:23 197 2 gusting 3 15.0
2018-Apr-22 07:14 201 3 gusting 6 15.0
2018-Apr-22 07:05 207 2 gusting 6 15.0
2018-Apr-22 06:56 218 1 gusting 5 15.0
2018-Apr-22 06:47 175 2 gusting 3 15.0
2018-Apr-22 06:38 190 3 gusting 5 15.0
2018-Apr-22 06:29 187 3 gusting 6 15.0
2018-Apr-22 06:20 191 3 gusting 6 15.6
2018-Apr-22 06:11 181 2 gusting 6 15.6
2018-Apr-22 06:02 189 15.6
2018-Apr-22 05:53 15.6
2018-Apr-22 05:44 15.6
2018-Apr-22 05:35 15.6
2018-Apr-22 05:26 187 0 gusting 1 15.6
2018-Apr-22 05:17 186 15.6
2018-Apr-22 05:08 15.6
2018-Apr-22 04:59 186 0 gusting 0 15.6
2018-Apr-22 04:50 186 16.1
2018-Apr-22 04:41 16.1
2018-Apr-22 04:32 16.1
2018-Apr-22 04:23 16.1
2018-Apr-22 04:14 16.7
2018-Apr-22 04:05 16.7
2018-Apr-22 03:56 171 0 gusting 1 16.7
2018-Apr-22 03:47 181 1 gusting 3 16.7
2018-Apr-22 03:38 212 1 gusting 3 16.7
2018-Apr-22 03:29 170 1 gusting 5 16.7
2018-Apr-22 03:20 142 0 gusting 5 17.2
2018-Apr-22 03:11 028 0 gusting 2 17.2
2018-Apr-22 03:02 041 0 gusting 3 17.2
2018-Apr-22 02:53 065 1 gusting 3 17.2
2018-Apr-22 02:44 035 0 gusting 4 17.2
2018-Apr-22 02:35 333 16.7
2018-Apr-22 02:26 310 0 gusting 3 17.2
2018-Apr-22 02:17 335 0 gusting 3 17.2
2018-Apr-22 02:08 341 2 gusting 4 17.8
2018-Apr-22 01:59 339 2 gusting 4 17.8
2018-Apr-22 01:50 008 3 gusting 4 17.8
2018-Apr-22 01:41 009 2 gusting 6 17.8
2018-Apr-22 01:32 296 2 gusting 4 17.8
2018-Apr-22 01:23 047 1 gusting 3 17.8
2018-Apr-22 01:14 039 4 gusting 7 17.8
2018-Apr-22 01:05 023 3 gusting 7 17.8
2018-Apr-22 00:56 343 2 gusting 5 17.8
2018-Apr-22 00:47 282 2 gusting 3 17.8
2018-Apr-22 00:38 296 4 gusting 6 18.3
2018-Apr-22 00:29 354 3 gusting 7 18.3
2018-Apr-22 00:20 011 1 gusting 6 18.3
2018-Apr-22 00:11 016 1 gusting 3 18.9
2018-Apr-22 00:02 030 4 gusting 7 18.9
2018-Apr-21 23:53 041 3 gusting 8 18.9
2018-Apr-21 23:44 034 1 gusting 7 18.9
2018-Apr-21 23:35 027 1 gusting 6 18.3
2018-Apr-21 23:26 009 0 gusting 4 18.3
2018-Apr-21 23:17 085 1 gusting 4 18.3
2018-Apr-21 23:08 059 3 gusting 6 18.3
2018-Apr-21 22:59 029 4 gusting 8 18.3
2018-Apr-21 22:50 006 4 gusting 7 18.3
2018-Apr-21 22:41 004 4 gusting 6 18.3
2018-Apr-21 22:32 349 4 gusting 9 18.3
2018-Apr-21 22:23 004 3 gusting 6 18.3
2018-Apr-21 22:14 003 3 gusting 6 18.3
2018-Apr-21 22:05 336 4 gusting 7 18.3
2018-Apr-21 21:56 345 4 gusting 7 18.3
2018-Apr-21 21:47 344 3 gusting 7 18.3
2018-Apr-21 21:38 353 5 gusting 8 18.9
2018-Apr-21 21:29 342 4 gusting 8 18.9
2018-Apr-21 21:20 343 4 gusting 8 18.9
2018-Apr-21 21:11 337 3 gusting 7 18.9
2018-Apr-21 21:02 310 1 gusting 6 18.9
2018-Apr-21 20:53 289 3 gusting 6 18.9
2018-Apr-21 20:44 320 1 gusting 6 18.9
2018-Apr-21 20:35 332 1 gusting 3 18.9
2018-Apr-21 20:26 332 2 gusting 6 19.4
2018-Apr-21 20:17 326 0 gusting 6 19.4
2018-Apr-21 20:08 306 1 gusting 3 19.4
2018-Apr-21 19:59 302 1 gusting 3 20.0
2018-Apr-21 19:50 253 2 gusting 5 20.0
2018-Apr-21 19:41 289 1 gusting 4 20.0
2018-Apr-21 19:32 353 2 gusting 4 20.6
2018-Apr-21 19:23 022 1 gusting 5 20.6
2018-Apr-21 19:14 003 1 gusting 4 21.1
2018-Apr-21 19:05 358 2 gusting 5 21.1
2018-Apr-21 18:56 037 3 gusting 6 21.7
2018-Apr-21 18:47 064 2 gusting 6 21.7
2018-Apr-21 18:38 084 2 gusting 6 22.2
2018-Apr-21 18:29 055 3 gusting 6 22.8
2018-Apr-21 18:20 037 4 gusting 7 22.8
2018-Apr-21 18:11 043 4 gusting 8 22.8
2018-Apr-21 18:02 034 4 gusting 8 22.8
2018-Apr-21 17:53 055 6 gusting 10 23.3
2018-Apr-21 17:44 055 5 gusting 13 23.3
2018-Apr-21 17:35 043 2 gusting 6 23.3
2018-Apr-21 17:26 133 1 gusting 4 23.3
2018-Apr-21 17:17 103 2 gusting 5 23.3
2018-Apr-21 17:08 060 3 gusting 7 23.3
2018-Apr-21 16:59 065 6 gusting 14 23.3
2018-Apr-21 16:50 069 5 gusting 13 23.3
2018-Apr-21 16:41 077 1 gusting 8 23.3
2018-Apr-21 16:32 096 4 gusting 6 23.3
2018-Apr-21 16:23 080 4 gusting 10 23.3
2018-Apr-21 16:14 088 2 gusting 6 23.3
2018-Apr-21 16:05 080 4 gusting 9 23.3
2018-Apr-21 15:56 100 3 gusting 9 23.3
2018-Apr-21 15:47 107 4 gusting 7 23.3
2018-Apr-21 15:38 082 3 gusting 8 23.3
2018-Apr-21 15:29 051 2 gusting 7 23.3
2018-Apr-21 15:20 062 4 gusting 6 22.8
2018-Apr-21 15:11 032 3 gusting 10 22.8
2018-Apr-21 15:02 346 3 gusting 6 22.2
2018-Apr-21 14:53 007 2 gusting 6 22.2
2018-Apr-21 14:44 007 3 gusting 6 21.7
2018-Apr-21 14:35 014 3 gusting 8 21.7
2018-Apr-21 14:26 012 2 gusting 6 21.7
2018-Apr-21 14:17 002 3 gusting 6 21.1
2018-Apr-21 14:08 335 3 gusting 6 20.6
2018-Apr-21 13:59 330 4 gusting 8 20.6
2018-Apr-21 13:50 341 1 gusting 7 20.0
2018-Apr-21 13:41 046 2 gusting 4 20.0
2018-Apr-21 13:32 333 3 gusting 6 20.0
2018-Apr-21 13:23 332 3 gusting 6 20.0
2018-Apr-21 13:14 003 5 gusting 8 19.4
2018-Apr-21 13:05 019 5 gusting 13 19.4
2018-Apr-21 12:56 022 3 gusting 14 19.4
2018-Apr-21 12:47 247 3 gusting 7 19.4
2018-Apr-21 12:38 267 3 gusting 6 19.4
2018-Apr-21 12:29 310 4 gusting 6 19.4
2018-Apr-21 12:20 278 6 gusting 12 19.4
2018-Apr-21 12:11 259 6 gusting 12 20.0
2018-Apr-21 12:02 264 5 gusting 12 20.0
2018-Apr-21 11:53 268 5 gusting 10 20.0
2018-Apr-21 11:44 270 5 gusting 10 19.4
2018-Apr-21 11:35 256 4 gusting 8 19.4
2018-Apr-21 11:26 274 5 gusting 9 19.4
2018-Apr-21 11:17 273 6 gusting 13 18.9
2018-Apr-21 11:08 269 7 gusting 13 18.9
2018-Apr-21 10:59 261 8 gusting 16 18.9
2018-Apr-21 10:50 259 8 gusting 13 18.9
2018-Apr-21 10:41 258 8 gusting 15 18.9
2018-Apr-21 10:32 262 9 gusting 15 18.9
2018-Apr-21 10:23 259 8 gusting 16 19.4
2018-Apr-21 10:14 250 6 gusting 13 20.0
2018-Apr-21 10:05 248 5 gusting 11 20.0
2018-Apr-21 09:56 241 3 gusting 10 20.6
2018-Apr-21 09:47 242 2 gusting 6 20.6
2018-Apr-21 09:38 057 3 gusting 7 20.6
2018-Apr-21 09:29 064 4 gusting 6 20.0
2018-Apr-21 09:20 065 3 gusting 7 20.0
2018-Apr-21 09:11 072 4 gusting 6 20.0
2018-Apr-21 09:02 080 6 gusting 13 20.0
2018-Apr-21 08:53 079 4 gusting 13 19.4
2018-Apr-21 08:44 082 6 gusting 8 19.4
2018-Apr-21 08:35 091 7 gusting 14 19.4
2018-Apr-21 08:26 086 7 gusting 14 19.4
2018-Apr-21 08:17 084 8 gusting 15 19.4
2018-Apr-21 08:08 087 8 gusting 18 19.4
2018-Apr-21 07:59 086 7 gusting 19 19.4
2018-Apr-21 07:50 086 6 gusting 13 19.4
2018-Apr-21 07:41 087 5 gusting 12 19.4
2018-Apr-21 07:32 081 4 gusting 10 19.4
2018-Apr-21 07:23 087 6 gusting 11 18.9
2018-Apr-21 07:14 060 7 gusting 19 18.9
2018-Apr-21 07:05 055 9 gusting 19 18.9
2018-Apr-21 06:56 060 8 gusting 19 18.9
2018-Apr-21 06:47 068 7 gusting 16 18.3
2018-Apr-21 06:38 070 8 gusting 15 18.3
2018-Apr-21 06:29 070 8 gusting 19 17.8
2018-Apr-21 06:20 064 7 gusting 19 17.8
2018-Apr-21 06:11 053 6 gusting 16 17.2
2018-Apr-21 06:02 054 6 gusting 18 17.2
2018-Apr-21 05:53 030 7 gusting 13 17.2
2018-Apr-21 05:44 039 5 gusting 17 16.7
2018-Apr-21 05:35 046 4 gusting 8 16.7
2018-Apr-21 05:26 036 4 gusting 7 16.1
2018-Apr-21 05:17 026 6 gusting 8 16.1
2018-Apr-21 05:08 015 4 gusting 11 16.7
2018-Apr-21 04:59 012 0 gusting 7 16.7
2018-Apr-21 04:50 16.7
2018-Apr-21 04:41 16.7
2018-Apr-21 04:32 16.7
2018-Apr-21 04:23 334 1 gusting 4 16.7
2018-Apr-21 04:14 332 1 gusting 4 16.7
2018-Apr-21 04:05 349 2 gusting 4 16.7
2018-Apr-21 03:56 359 3 gusting 6 16.7
2018-Apr-21 03:47 334 2 gusting 6 16.7
2018-Apr-21 03:38 270 1 gusting 4 16.7
2018-Apr-21 03:29 245 1 gusting 3 16.7
2018-Apr-21 03:20 235 2 gusting 5 16.7
2018-Apr-21 03:11 258 2 gusting 4 16.7
2018-Apr-21 03:02 260 1 gusting 4 16.7
2018-Apr-21 02:53 256 2 gusting 3 16.7
2018-Apr-21 02:44 244 3 gusting 5 17.2
2018-Apr-21 02:35 299 3 gusting 6 17.2
2018-Apr-21 02:26 004 3 gusting 6 17.8
2018-Apr-21 02:17 018 2 gusting 7 17.8
2018-Apr-21 02:08 306 3 gusting 5 17.8
2018-Apr-21 01:59 034 5 gusting 8 17.8
2018-Apr-21 01:50 045 6 gusting 13 17.8
2018-Apr-21 01:41 037 6 gusting 12 17.2
2018-Apr-21 01:32 024 5 gusting 11 17.8
2018-Apr-21 01:23 019 6 gusting 9 17.2
2018-Apr-21 01:14 352 3 gusting 9 17.2
2018-Apr-21 01:05 324 1 gusting 6 17.8
2018-Apr-21 00:56 311 1 gusting 3 17.8
2018-Apr-21 00:47 315 1 gusting 4 17.8
2018-Apr-21 00:38 318 1 gusting 4 17.8
2018-Apr-21 00:29 308 2 gusting 4 17.8
2018-Apr-21 00:20 031 3 gusting 6 17.8
2018-Apr-21 00:11 054 5 gusting 11 17.8
2018-Apr-21 00:02 045 5 gusting 11 17.8
2018-Apr-20 23:53 049 6 gusting 12 18.3
2018-Apr-20 23:44 032 4 gusting 10 18.3
2018-Apr-20 23:35 031 3 gusting 9 18.3
2018-Apr-20 23:26 032 5 gusting 8 18.3
2018-Apr-20 23:17 038 5 gusting 12 18.3
2018-Apr-20 23:08 031 5 gusting 9 18.3
2018-Apr-20 22:59 011 4 gusting 8 18.3
2018-Apr-20 22:50 343 3 gusting 5 17.8
2018-Apr-20 22:41 333 2 gusting 4 18.3
2018-Apr-20 22:32 042 1 gusting 4 19.4
2018-Apr-20 22:23 066 1 gusting 3 19.4
2018-Apr-20 22:14 080 1 gusting 5 19.4
2018-Apr-20 22:05 121 0 gusting 3 19.4
2018-Apr-20 21:56 123 1 gusting 2 19.4
2018-Apr-20 21:47 126 0 gusting 2 19.4
2018-Apr-20 21:38 173 1 gusting 2 19.4
2018-Apr-20 21:29 223 1 gusting 3 19.4
2018-Apr-20 21:20 224 0 gusting 2 19.4
2018-Apr-20 21:11 224 0 gusting 1 19.4
2018-Apr-20 21:02 224 19.4
2018-Apr-20 20:53 224 1 gusting 2 19.4
2018-Apr-20 20:44 224 1 gusting 3 19.4
2018-Apr-20 20:35 224 1 gusting 3 19.4
2018-Apr-20 20:26 222 1 gusting 3 19.4
2018-Apr-20 20:17 212 3 gusting 5 19.4
2018-Apr-20 20:08 214 2 gusting 6 19.4
2018-Apr-20 19:59 245 3 gusting 5 19.4
2018-Apr-20 19:50 233 3 gusting 5 19.4
2018-Apr-20 19:41 241 4 gusting 6 20.0
2018-Apr-20 19:32 252 4 gusting 6 20.0
2018-Apr-20 19:23 242 4 gusting 6 20.0
2018-Apr-20 19:14 241 4 gusting 6 20.6
2018-Apr-20 19:05 243 3 gusting 6 20.6
2018-Apr-20 18:56 236 3 gusting 7 20.6
2018-Apr-20 18:47 230 5 gusting 7 20.6
2018-Apr-20 18:38 216 6 gusting 11 21.1
2018-Apr-20 18:29 217 6 gusting 13 21.1
2018-Apr-20 18:20 216 6 gusting 13 21.1
2018-Apr-20 18:11 218 6 gusting 13 21.7
2018-Apr-20 18:02 232 6 gusting 13 21.7
2018-Apr-20 17:53 246 6 gusting 12 21.7
2018-Apr-20 17:44 243 6 gusting 13 22.2
2018-Apr-20 17:35 222 6 gusting 13 22.8
2018-Apr-20 17:26 221 6 gusting 13 22.8
2018-Apr-20 17:17 223 6 gusting 13 22.8
2018-Apr-20 17:08 245 5 gusting 10 23.3
2018-Apr-20 16:59 247 5 gusting 9 23.3
2018-Apr-20 16:50 247 6 gusting 11 23.3
2018-Apr-20 16:41 260 5 gusting 10 23.3
2018-Apr-20 16:32 254 5 gusting 10 23.3
2018-Apr-20 16:23 249 6 gusting 8 23.9
2018-Apr-20 16:14 249 6 gusting 10 23.9
2018-Apr-20 16:05 244 5 gusting 12 23.9
2018-Apr-20 15:56 254 4 gusting 8 23.9
2018-Apr-20 15:47 234 4 gusting 7 24.4
2018-Apr-20 15:38 233 5 gusting 10 23.9
2018-Apr-20 15:29 249 4 gusting 10 24.4
2018-Apr-20 15:20 249 4 gusting 7 23.9
2018-Apr-20 15:11 226 4 gusting 7 24.4
2018-Apr-20 15:02 209 4 gusting 6 23.9
2018-Apr-20 14:53 230 5 gusting 9 23.9
2018-Apr-20 14:44 221 6 gusting 10 23.9
2018-Apr-20 14:35 231 4 gusting 9 23.9
2018-Apr-20 14:26 249 3 gusting 6 23.9
2018-Apr-20 14:17 221 5 gusting 8 23.9
2018-Apr-20 14:08 215 4 gusting 9 23.9
2018-Apr-20 13:59 210 5 gusting 8 23.9
2018-Apr-20 13:50 214 6 gusting 10 23.9
2018-Apr-20 13:41 225 6 gusting 9 23.3
2018-Apr-20 13:32 210 7 gusting 13 23.3
2018-Apr-20 13:23 205 6 gusting 13 23.9
2018-Apr-20 13:14 201 4 gusting 10 24.4
2018-Apr-20 13:05 104 4 gusting 7 24.4
2018-Apr-20 12:56 117 4 gusting 13 24.4
2018-Apr-20 12:47 085 4 gusting 8 24.4
2018-Apr-20 12:38 101 6 gusting 13 24.4
2018-Apr-20 12:29 077 7 gusting 14 23.9
2018-Apr-20 12:20 078 6 gusting 14 23.3
2018-Apr-20 12:11 077 7 gusting 15 23.9
2018-Apr-20 12:02 069 8 gusting 14 23.3
2018-Apr-20 11:53 061 9 gusting 18 23.3
2018-Apr-20 11:44 074 7 gusting 18 22.8
2018-Apr-20 11:35 075 8 gusting 17 22.8
2018-Apr-20 11:26 068 9 gusting 16 22.2
2018-Apr-20 11:17 070 11 gusting 19 22.2
2018-Apr-20 11:08 080 8 gusting 21 21.7
2018-Apr-20 10:59 079 9 gusting 21 22.2
2018-Apr-20 10:50 067 9 gusting 19 21.7
2018-Apr-20 10:41 083 9 gusting 19 21.7
2018-Apr-20 10:32 065 9 gusting 16 21.1
2018-Apr-20 10:23 078 8 gusting 17 21.1
2018-Apr-20 10:14 078 9 gusting 18 21.1
2018-Apr-20 10:05 083 8 gusting 19 20.6
2018-Apr-20 09:56 080 11 gusting 19 20.6
2018-Apr-20 09:47 067 10 gusting 20 20.6
2018-Apr-20 09:38 066 10 gusting 20 20.6
2018-Apr-20 09:29 063 11 gusting 24 20.0
2018-Apr-20 09:20 069 9 gusting 19 20.0
2018-Apr-20 09:11 088 10 gusting 19 20.0
2018-Apr-20 09:02 079 10 gusting 21 19.4
2018-Apr-20 08:53 079 11 gusting 19 19.4
2018-Apr-20 08:44 080 11 gusting 20 18.9
2018-Apr-20 08:35 074 11 gusting 21 18.9
2018-Apr-20 08:26 076 10 gusting 24 18.9
2018-Apr-20 08:17 075 8 gusting 24 18.3
2018-Apr-20 08:08 070 9 gusting 19 18.3